Time;durP1;ratioP1;P1;durP2;ratioP2;P2;SDS_P1;SDS_P2;PMS_P1;PMS_P2;Temp;Humidity;BMP_temperature;BMP_pressure;BME280_temperature;BME280_humidity;BME280_pressure;Samples;Min_cycle;Max_cycle;Signal;HPM_P1;HPM_P2
2022/02/13 00:00:09;;;;;;;13.25;9.27;;;-0.20;99.90;;;;;;5004625;28;20025;-74
2022/02/13 00:02:39;;;;;;;11.55;9.73;;;-0.10;99.90;;;;;;4993244;28;20113;-74
2022/02/13 00:05:06;;;;;;;10.77;8.63;;;-0.20;99.90;;;;;;4993561;28;20106;-74
2022/02/13 00:07:33;;;;;;;11.48;8.75;;;-0.20;99.90;;;;;;4993414;28;20514;-74
2022/02/13 00:09:59;;;;;;;9.77;8.63;;;-0.20;99.90;;;;;;4992075;28;20026;-74
2022/02/13 00:12:24;;;;;;;10.45;8.95;;;-0.10;99.90;;;;;;5001952;28;20041;-75
2022/02/13 00:14:50;;;;;;;10.23;8.73;;;-0.20;99.90;;;;;;4999795;28;20080;-74
2022/02/13 00:17:16;;;;;;;11.38;8.73;;;-0.20;99.90;;;;;;5004151;28;20081;-73
2022/02/13 00:19:43;;;;;;;12.00;8.38;;;-0.20;99.90;;;;;;4993003;28;20102;-73
2022/02/13 00:22:09;;;;;;;11.65;9.07;;;-0.30;99.90;;;;;;4991622;28;20093;-74
2022/02/13 00:24:34;;;;;;;11.25;8.82;;;-0.30;99.90;;;;;;4994104;28;20027;-74
2022/02/13 00:27:00;;;;;;;12.90;9.88;;;-0.30;99.90;;;;;;5002721;28;20072;-74
2022/02/13 00:29:26;;;;;;;12.45;10.43;;;-0.30;99.90;;;;;;4994725;28;20030;-74
2022/02/13 00:31:52;;;;;;;10.90;9.13;;;-0.30;99.90;;;;;;5002860;28;20112;-75
2022/02/13 00:34:17;;;;;;;11.75;9.70;;;-0.40;99.90;;;;;;5006227;28;20496;-74
2022/02/13 00:36:43;;;;;;;10.73;9.63;;;-0.40;99.90;;;;;;5001109;28;20033;-74
2022/02/13 00:39:08;;;;;;;11.43;8.90;;;-0.40;99.90;;;;;;4998239;28;20496;-74
2022/02/13 00:41:34;;;;;;;11.45;8.73;;;-0.50;99.90;;;;;;5011031;28;20029;-74
2022/02/13 00:44:00;;;;;;;10.82;8.68;;;-0.40;99.90;;;;;;4997948;28;20026;-74
2022/02/13 00:46:27;;;;;;;11.65;8.93;;;-0.40;99.90;;;;;;5004460;28;20014;-74
2022/02/13 00:48:54;;;;;;;10.50;9.40;;;-0.50;99.90;;;;;;5004492;28;20447;-76
2022/02/13 00:51:20;;;;;;;11.15;9.13;;;-0.50;99.90;;;;;;5000110;28;20034;-74
2022/02/13 00:53:46;;;;;;;12.90;10.30;;;-0.50;99.90;;;;;;4997912;28;20033;-74
2022/02/13 00:56:12;;;;;;;10.65;9.07;;;-0.50;99.90;;;;;;5003381;28;20101;-74
2022/02/13 00:58:37;;;;;;;12.50;9.60;;;-0.60;99.90;;;;;;5007995;28;20105;-74
2022/02/13 01:01:03;;;;;;;11.38;9.00;;;-0.50;99.90;;;;;;5018411;28;20084;-73
2022/02/13 01:03:29;;;;;;;12.73;8.90;;;-0.60;99.90;;;;;;5005723;28;20436;-73
2022/02/13 01:05:55;;;;;;;10.48;8.10;;;-0.70;99.90;;;;;;5001175;28;20052;-73
2022/02/13 01:08:20;;;;;;;13.27;9.75;;;-0.90;99.90;;;;;;4998888;28;20034;-72
2022/02/13 01:10:46;;;;;;;11.20;8.30;;;-0.80;99.90;;;;;;5001684;28;20030;-73
2022/02/13 01:13:12;;;;;;;13.32;9.45;;;-1.00;99.90;;;;;;5006866;28;20037;-73
2022/02/13 01:15:37;;;;;;;12.20;9.40;;;-0.90;99.90;;;;;;5003842;28;20026;-73
2022/02/13 01:18:03;;;;;;;13.32;10.30;;;-0.80;99.90;;;;;;5006887;28;20038;-73
2022/02/13 01:20:28;;;;;;;10.75;9.43;;;-0.80;99.90;;;;;;5003712;28;20018;-74
2022/02/13 01:22:54;;;;;;;12.40;9.80;;;-0.80;99.90;;;;;;4992169;28;20478;-74
2022/02/13 01:25:20;;;;;;;12.93;9.35;;;-0.70;99.90;;;;;;4998930;28;20065;-75
2022/02/13 01:27:46;;;;;;;13.85;9.30;;;-0.70;99.90;;;;;;4997223;28;20531;-74
2022/02/13 01:30:12;;;;;;;12.70;9.48;;;-0.80;99.90;;;;;;4990958;28;20034;-75
2022/02/13 01:32:37;;;;;;;12.68;9.68;;;-0.70;99.90;;;;;;5005166;28;20026;-75
2022/02/13 01:35:04;;;;;;;12.48;9.60;;;-0.80;99.90;;;;;;5000332;28;20040;-75
2022/02/13 01:37:29;;;;;;;11.85;9.45;;;-0.70;99.90;;;;;;4995971;28;20141;-74
2022/02/13 01:39:55;;;;;;;13.57;9.68;;;-0.80;99.90;;;;;;5000826;28;20467;-74
2022/02/13 01:42:20;;;;;;;13.35;9.32;;;-0.80;99.90;;;;;;4998400;28;20031;-74
2022/02/13 01:44:46;;;;;;;12.38;9.55;;;-0.80;99.90;;;;;;5019068;28;20065;-75
2022/02/13 01:47:11;;;;;;;12.75;9.50;;;-0.70;99.90;;;;;;4992590;28;20022;-75
2022/02/13 01:49:37;;;;;;;11.05;9.48;;;-0.70;99.90;;;;;;5001780;28;20026;-74
2022/02/13 01:52:04;;;;;;;12.13;9.63;;;-0.70;99.90;;;;;;5005160;28;20030;-73
2022/02/13 01:54:30;;;;;;;11.85;9.68;;;-0.70;99.90;;;;;;5000483;28;20120;-73
2022/02/13 01:56:56;;;;;;;12.70;9.75;;;-0.70;99.90;;;;;;4995703;28;20497;-73
2022/02/13 01:59:22;;;;;;;13.50;10.20;;;-0.80;99.90;;;;;;5000412;28;20117;-73
2022/02/13 02:01:48;;;;;;;12.38;10.02;;;-0.70;99.90;;;;;;5010111;28;20385;-73
2022/02/13 02:04:13;;;;;;;13.20;10.20;;;-0.80;99.90;;;;;;5003538;28;20025;-73
2022/02/13 02:06:39;;;;;;;12.32;10.20;;;-0.80;99.90;;;;;;4992026;28;20027;-75
2022/02/13 02:09:05;;;;;;;15.25;10.35;;;-0.90;99.90;;;;;;5003832;28;20168;-75
2022/02/13 02:11:32;;;;;;;17.38;10.88;;;-1.00;99.90;;;;;;5004514;28;20049;-75
2022/02/13 02:13:57;;;;;;;13.25;10.05;;;-0.90;99.90;;;;;;4998878;28;20400;-77
2022/02/13 02:16:23;;;;;;;14.90;10.35;;;-0.90;99.90;;;;;;4996912;28;20027;-77
2022/02/13 02:18:49;;;;;;;15.70;10.90;;;-0.80;99.90;;;;;;5002237;28;20041;-77
2022/02/13 02:21:15;;;;;;;14.35;10.85;;;-0.90;99.90;;;;;;5004671;28;20022;-76
2022/02/13 02:23:40;;;;;;;15.10;10.93;;;-1.00;99.90;;;;;;5001887;28;20108;-75
2022/02/13 02:26:07;;;;;;;15.15;10.93;;;-1.00;99.90;;;;;;5000499;28;20045;-75
2022/02/13 02:28:33;;;;;;;11.95;10.00;;;-0.90;99.90;;;;;;5007330;28;20056;-75
2022/02/13 02:30:59;;;;;;;14.77;10.82;;;-0.90;99.90;;;;;;4994942;28;20464;-75
2022/02/13 02:33:24;;;;;;;14.82;10.85;;;-1.00;99.90;;;;;;5007371;28;20109;-74
2022/02/13 02:35:50;;;;;;;12.52;10.25;;;-1.00;99.90;;;;;;5009418;28;20037;-75
2022/02/13 02:38:16;;;;;;;15.55;10.93;;;-1.00;99.90;;;;;;5007130;28;20030;-74
2022/02/13 02:40:42;;;;;;;13.75;9.98;;;-1.00;99.90;;;;;;5006730;28;20022;-74
2022/02/13 02:43:08;;;;;;;14.73;9.57;;;-1.00;99.90;;;;;;5002734;28;20476;-74
2022/02/13 02:45:34;;;;;;;13.25;10.68;;;-1.00;99.90;;;;;;5001532;28;20030;-76
2022/02/13 02:47:59;;;;;;;10.95;9.32;;;-1.10;99.90;;;;;;5005717;28;20034;-75
2022/02/13 02:50:25;;;;;;;12.73;10.55;;;-1.20;99.90;;;;;;4996711;28;20030;-76
2022/02/13 02:52:50;;;;;;;12.95;10.05;;;-1.20;99.90;;;;;;5006258;28;20092;-74
2022/02/13 02:55:16;;;;;;;13.40;9.95;;;-1.20;99.90;;;;;;4996450;28;20080;-76
2022/02/13 02:57:42;;;;;;;12.90;10.65;;;-1.10;99.90;;;;;;5014268;28;20502;-76
2022/02/13 03:00:10;;;;;;;14.02;11.50;;;-1.10;99.90;;;;;;5014253;28;20032;-75
2022/02/13 03:02:36;;;;;;;13.40;10.07;;;-1.10;99.90;;;;;;5014049;28;20014;-74
2022/02/13 03:05:02;;;;;;;13.13;11.13;;;-1.10;99.90;;;;;;4999752;28;20109;-75
2022/02/13 03:07:27;;;;;;;13.95;11.80;;;-1.10;99.90;;;;;;4994559;28;20027;-74
2022/02/13 03:09:53;;;;;;;14.18;12.07;;;-1.20;99.90;;;;;;5005814;28;20035;-75
2022/02/13 03:12:18;;;;;;;15.40;10.90;;;-1.20;99.90;;;;;;5006348;28;20043;-74
2022/02/13 03:14:44;;;;;;;14.02;11.40;;;-1.20;99.90;;;;;;5000868;28;20022;-73
2022/02/13 03:17:09;;;;;;;14.40;11.13;;;-1.20;99.90;;;;;;5006366;28;20500;-73
2022/02/13 03:19:36;;;;;;;11.82;10.63;;;-1.20;99.90;;;;;;5006112;28;20487;-74
2022/02/13 03:22:02;;;;;;;13.50;10.95;;;-1.20;99.90;;;;;;5000537;28;20476;-74
2022/02/13 03:24:28;;;;;;;13.10;11.35;;;-1.20;99.90;;;;;;4999254;28;20026;-74
2022/02/13 03:26:53;;;;;;;13.40;11.65;;;-1.10;99.90;;;;;;5006113;28;20029;-74
2022/02/13 03:29:19;;;;;;;11.25;10.02;;;-1.20;99.90;;;;;;5007363;28;20072;-73
2022/02/13 03:31:44;;;;;;;15.65;11.23;;;-1.10;99.90;;;;;;5001634;28;20053;-73
2022/02/13 03:34:10;;;;;;;14.98;11.05;;;-1.10;99.90;;;;;;4998615;28;20477;-74
2022/02/13 03:36:36;;;;;;;14.88;10.90;;;-1.10;99.90;;;;;;4992820;28;20026;-74
2022/02/13 03:39:04;;;;;;;14.13;10.65;;;-1.20;99.90;;;;;;5006845;28;20514;-74
2022/02/13 03:41:29;;;;;;;14.63;11.63;;;-1.10;99.90;;;;;;5002001;28;20087;-75
2022/02/13 03:43:55;;;;;;;14.25;10.50;;;-1.20;99.90;;;;;;4999136;28;20022;-75
2022/02/13 03:46:20;;;;;;;13.43;11.80;;;-1.20;99.90;;;;;;5005588;28;20113;-73
2022/02/13 03:48:46;;;;;;;13.05;11.35;;;-1.20;99.90;;;;;;5006184;28;20068;-74
2022/02/13 03:51:12;;;;;;;14.57;12.20;;;-1.20;99.90;;;;;;5001462;28;20040;-73
2022/02/13 03:53:37;;;;;;;16.83;11.60;;;-1.20;99.90;;;;;;5000042;28;20033;-74
2022/02/13 03:56:03;;;;;;;13.20;11.80;;;-1.20;99.90;;;;;;5005598;28;20038;-74
2022/02/13 03:58:29;;;;;;;13.32;11.93;;;-1.20;99.90;;;;;;5006696;28;20033;-74
2022/02/13 04:00:54;;;;;;;14.18;10.63;;;-1.30;99.90;;;;;;5000960;28;20026;-74
2022/02/13 04:03:21;;;;;;;11.55;10.35;;;-1.20;99.90;;;;;;4999802;28;20026;-75
2022/02/13 04:05:47;;;;;;;12.40;10.10;;;-1.30;99.90;;;;;;5004554;28;20019;-75
2022/02/13 04:08:13;;;;;;;13.88;11.57;;;-1.20;99.90;;;;;;5006629;28;20105;-75
2022/02/13 04:10:38;;;;;;;12.50;10.77;;;-1.20;99.90;;;;;;5000687;28;20026;-75
2022/02/13 04:13:04;;;;;;;13.52;11.88;;;-1.30;99.90;;;;;;4997551;28;20503;-75
2022/02/13 04:15:29;;;;;;;12.35;11.05;;;-1.20;99.90;;;;;;4999491;28;20034;-75
2022/02/13 04:17:55;;;;;;;12.43;11.00;;;-1.30;99.90;;;;;;4999626;28;20030;-75
2022/02/13 04:20:21;;;;;;;12.73;10.73;;;-1.20;99.90;;;;;;5005417;28;20053;-75
2022/02/13 04:22:46;;;;;;;12.52;10.65;;;-1.20;99.90;;;;;;5005067;28;20502;-74
2022/02/13 04:25:12;;;;;;;13.73;11.40;;;-1.30;99.90;;;;;;5000746;28;20526;-74
2022/02/13 04:27:38;;;;;;;13.80;10.80;;;-1.30;99.90;;;;;;5011719;28;20018;-74
2022/02/13 04:30:05;;;;;;;11.38;10.18;;;-1.30;99.90;;;;;;4993159;28;20093;-75
2022/02/13 04:32:31;;;;;;;14.50;11.30;;;-1.30;99.90;;;;;;5007270;28;20114;-75
2022/02/13 04:34:56;;;;;;;13.80;10.77;;;-1.30;99.90;;;;;;5012730;28;20112;-74
2022/02/13 04:37:22;;;;;;;11.40;10.18;;;-1.30;99.90;;;;;;4998324;28;20061;-73
2022/02/13 04:39:48;;;;;;;12.00;10.68;;;-1.30;99.90;;;;;;5003416;28;20030;-75
2022/02/13 04:42:14;;;;;;;11.57;10.38;;;-1.30;99.90;;;;;;5004935;28;20583;-76
2022/02/13 04:44:40;;;;;;;12.75;11.00;;;-1.20;99.90;;;;;;4991687;28;20113;-74
2022/02/13 04:47:06;;;;;;;12.32;10.43;;;-1.20;99.90;;;;;;4993155;28;20106;-73
2022/02/13 04:49:32;;;;;;;13.23;10.68;;;-1.30;99.90;;;;;;5004689;28;20101;-73
2022/02/13 04:51:57;;;;;;;12.70;10.68;;;-1.30;99.90;;;;;;5005730;28;20022;-73
2022/02/13 04:54:23;;;;;;;12.40;10.82;;;-1.30;99.90;;;;;;4998747;28;20033;-74
2022/02/13 04:56:49;;;;;;;15.10;11.73;;;-1.30;99.90;;;;;;4997285;28;20072;-74
2022/02/13 04:59:14;;;;;;;12.18;10.98;;;-1.30;99.90;;;;;;4992603;28;20026;-75
2022/02/13 05:01:40;;;;;;;12.00;10.70;;;-1.30;99.90;;;;;;5005373;28;20029;-75
2022/02/13 05:04:05;;;;;;;13.20;10.43;;;-1.40;99.90;;;;;;4992521;28;20046;-73
2022/02/13 05:06:31;;;;;;;11.65;10.27;;;-1.30;99.90;;;;;;4991715;28;20022;-75
2022/02/13 05:08:57;;;;;;;12.82;11.02;;;-1.30;99.90;;;;;;5005088;28;20023;-74
2022/02/13 05:11:22;;;;;;;12.80;11.43;;;-1.30;99.90;;;;;;5005239;28;20073;-73
2022/02/13 05:13:49;;;;;;;14.00;10.35;;;-1.30;99.90;;;;;;4998201;28;20084;-73
2022/02/13 05:16:15;;;;;;;11.95;10.75;;;-1.40;99.90;;;;;;4998592;28;20033;-75
2022/02/13 05:18:40;;;;;;;14.25;10.98;;;-1.40;99.90;;;;;;4992275;28;20034;-75
2022/02/13 05:21:06;;;;;;;12.65;11.35;;;-1.40;99.90;;;;;;5005061;28;20022;-76
2022/02/13 05:23:31;;;;;;;15.35;12.40;;;-1.40;99.90;;;;;;4999073;28;20037;-75
2022/02/13 05:25:57;;;;;;;13.00;11.60;;;-1.40;99.90;;;;;;4998770;28;20069;-75
2022/02/13 05:28:22;;;;;;;14.23;12.02;;;-1.50;99.90;;;;;;5005483;28;20481;-75
2022/02/13 05:30:48;;;;;;;14.30;12.10;;;-1.50;99.90;;;;;;5003830;28;20030;-75
2022/02/13 05:33:13;;;;;;;14.45;12.18;;;-1.50;99.90;;;;;;4998536;28;20026;-75
2022/02/13 05:35:39;;;;;;;14.00;11.77;;;-1.50;99.90;;;;;;5014305;28;20034;-75
2022/02/13 05:38:04;;;;;;;11.82;10.63;;;-1.50;99.90;;;;;;5005418;28;20038;-74
2022/02/13 05:40:30;;;;;;;12.02;10.82;;;-1.50;99.90;;;;;;5004558;28;20087;-74
2022/02/13 05:42:55;;;;;;;12.73;11.43;;;-1.40;99.90;;;;;;4991608;28;20018;-74
2022/02/13 05:45:21;;;;;;;14.98;12.65;;;-1.60;99.90;;;;;;5003081;28;20029;-75
2022/02/13 05:47:46;;;;;;;21.13;17.70;;;-1.60;99.90;;;;;;4992048;28;20019;-74
2022/02/13 05:50:12;;;;;;;27.05;21.55;;;-1.60;99.90;;;;;;4992132;28;20037;-75
2022/02/13 05:52:38;;;;;;;16.98;14.90;;;-1.70;99.90;;;;;;5003803;28;20045;-74
2022/02/13 05:55:07;;;;;;;14.82;11.75;;;-1.80;99.90;;;;;;5005242;28;20473;-74
2022/02/13 05:57:32;;;;;;;15.00;11.52;;;-1.80;99.90;;;;;;5003571;28;20032;-74
2022/02/13 05:59:58;;;;;;;14.45;11.95;;;-1.80;99.90;;;;;;5002425;28;20397;-74
2022/02/13 06:02:23;;;;;;;13.00;10.50;;;-1.90;99.90;;;;;;5000838;28;20014;-74
2022/02/13 06:04:49;;;;;;;11.00;9.90;;;-1.90;99.90;;;;;;5000938;28;20397;-74
2022/02/13 06:07:15;;;;;;;11.65;10.45;;;-2.00;99.90;;;;;;4994213;28;20022;-74
2022/02/13 06:09:41;;;;;;;14.05;11.38;;;-1.90;99.90;;;;;;5007430;28;20169;-74
2022/02/13 06:12:07;;;;;;;15.13;9.88;;;-1.90;99.90;;;;;;5001613;28;20491;-74
2022/02/13 06:14:33;;;;;;;12.25;10.68;;;-2.00;99.90;;;;;;5002581;28;20038;-75
2022/02/13 06:16:59;;;;;;;14.25;11.60;;;-1.90;99.90;;;;;;5008850;28;20105;-75
2022/02/13 06:19:26;;;;;;;15.82;12.00;;;-1.90;99.90;;;;;;4994218;28;20030;-75
2022/02/13 06:21:51;;;;;;;13.13;11.73;;;-1.90;99.90;;;;;;5000137;28;20022;-74
2022/02/13 06:24:17;;;;;;;14.52;12.50;;;-1.80;99.90;;;;;;5001025;28;20161;-74
2022/02/13 06:26:42;;;;;;;13.18;11.85;;;-1.70;99.90;;;;;;5008693;28;20385;-74
2022/02/13 06:29:09;;;;;;;12.55;11.15;;;-1.60;99.90;;;;;;4994084;28;20038;-74
2022/02/13 06:31:34;;;;;;;12.60;11.23;;;-1.50;99.90;;;;;;4999792;28;20124;-74
2022/02/13 06:34:00;;;;;;;12.88;11.55;;;-1.50;99.90;;;;;;5002944;28;20504;-74
2022/02/13 06:36:26;;;;;;;15.65;13.52;;;-1.40;99.90;;;;;;5008369;28;20030;-74
2022/02/13 06:38:51;;;;;;;13.68;12.27;;;-1.40;99.90;;;;;;5006233;28;20032;-74
2022/02/13 06:41:17;;;;;;;12.30;11.00;;;-1.40;99.90;;;;;;5001174;28;20029;-74
2022/02/13 06:43:42;;;;;;;13.13;11.73;;;-1.40;99.90;;;;;;5002538;28;20099;-74
2022/02/13 06:46:08;;;;;;;15.05;12.25;;;-1.40;99.90;;;;;;5008308;28;20026;-74
2022/02/13 06:48:35;;;;;;;15.13;11.77;;;-1.30;99.90;;;;;;4995003;28;20031;-74
2022/02/13 06:51:01;;;;;;;12.30;10.50;;;-1.40;99.90;;;;;;4993407;28;20121;-73
2022/02/13 06:53:27;;;;;;;12.60;11.30;;;-1.40;99.90;;;;;;5007912;28;20076;-75
2022/02/13 06:55:52;;;;;;;13.05;10.77;;;-1.40;99.90;;;;;;5001197;28;20030;-75
2022/02/13 06:58:19;;;;;;;12.20;10.85;;;-1.40;99.90;;;;;;5001573;28;20396;-75
2022/02/13 07:00:44;;;;;;;12.95;10.80;;;-1.20;99.90;;;;;;5007936;28;20366;-75
2022/02/13 07:03:10;;;;;;;12.52;11.23;;;-1.30;99.90;;;;;;5006275;28;20088;-77
2022/02/13 07:05:36;;;;;;;14.10;11.80;;;-1.20;99.90;;;;;;4995106;28;20656;-77
2022/02/13 07:08:01;;;;;;;11.52;10.40;;;-1.10;99.90;;;;;;4993364;28;20026;-75
2022/02/13 07:10:27;;;;;;;13.45;11.23;;;-1.10;99.90;;;;;;5004950;28;20503;-75
2022/02/13 07:12:52;;;;;;;11.98;10.77;;;-1.10;99.90;;;;;;5007221;28;20238;-77
2022/02/13 07:15:18;;;;;;;11.98;10.35;;;-1.00;99.90;;;;;;5000987;28;20028;-77
2022/02/13 07:17:45;;;;;;;13.73;11.10;;;-1.00;99.90;;;;;;5001605;28;20026;-76
2022/02/13 07:20:11;;;;;;;11.95;10.75;;;-0.90;99.90;;;;;;5007545;28;20034;-77
2022/02/13 07:22:37;;;;;;;15.60;12.50;;;-0.90;99.90;;;;;;5006642;28;20026;-76
2022/02/13 07:25:06;;;;;;;14.80;12.32;;;-0.80;99.90;;;;;;5016028;28;20025;-75
2022/02/13 07:27:35;;;;;;;18.05;14.25;;;-0.80;99.90;;;;;;5001062;28;20477;-75
2022/02/13 07:30:01;;;;;;;14.25;12.30;;;-0.80;99.90;;;;;;4980173;28;20034;-75
2022/02/13 07:32:27;;;;;;;15.20;12.90;;;-0.70;99.90;;;;;;5007077;28;20477;-75
2022/02/13 07:34:52;;;;;;;23.60;16.70;;;-0.60;99.90;;;;;;5007342;28;20109;-75
2022/02/13 07:37:18;;;;;;;22.33;16.80;;;-0.60;99.90;;;;;;5005976;28;20033;-75
2022/02/13 07:39:43;;;;;;;13.90;12.15;;;-0.50;99.90;;;;;;5000577;28;20029;-75
2022/02/13 07:42:10;;;;;;;12.88;11.10;;;-0.40;99.90;;;;;;5000488;28;20054;-75
2022/02/13 07:44:37;;;;;;;11.73;10.52;;;-0.30;99.90;;;;;;4991676;28;20046;-76
2022/02/13 07:47:03;;;;;;;12.07;10.35;;;-0.20;99.90;;;;;;5007070;28;20045;-77
2022/02/13 07:49:29;;;;;;;14.98;11.20;;;-0.20;99.90;;;;;;4980906;28;20045;-75
2022/02/13 07:51:54;;;;;;;16.27;14.55;;;-0.10;99.90;;;;;;5006726;28;20424;-75
2022/02/13 07:54:20;;;;;;;13.25;11.30;;;0.00;99.90;;;;;;5000792;28;20391;-75
2022/02/13 07:56:46;;;;;;;16.20;13.23;;;0.00;99.90;;;;;;4998983;28;20026;-75
2022/02/13 07:59:11;;;;;;;13.93;12.48;;;0.10;99.90;;;;;;5004948;28;20026;-75
2022/02/13 08:01:37;;;;;;;14.18;11.98;;;0.30;99.90;;;;;;5005222;28;20026;-75
2022/02/13 08:04:02;;;;;;;11.88;10.75;;;0.20;99.90;;;;;;5000480;28;20022;-76
2022/02/13 08:06:28;;;;;;;13.30;10.20;;;0.20;99.90;;;;;;4999822;28;20091;-76
2022/02/13 08:08:53;;;;;;;13.27;11.18;;;0.30;99.90;;;;;;4998653;28;20164;-76
2022/02/13 08:11:19;;;;;;;12.23;10.63;;;0.20;99.90;;;;;;4999644;28;20027;-76
2022/02/13 08:13:45;;;;;;;11.88;10.35;;;0.30;99.90;;;;;;5005896;28;20077;-76
2022/02/13 08:16:11;;;;;;;13.20;10.70;;;0.40;99.90;;;;;;5004152;28;20037;-76
2022/02/13 08:18:39;;;;;;;12.25;10.57;;;0.30;99.90;;;;;;4997389;28;20022;-76
2022/02/13 08:21:06;;;;;;;12.43;10.80;;;0.40;99.90;;;;;;4997402;28;20099;-76
2022/02/13 08:23:32;;;;;;;11.40;10.00;;;0.50;99.90;;;;;;5004283;28;20110;-76
2022/02/13 08:25:58;;;;;;;11.05;9.98;;;0.60;99.90;;;;;;5005198;28;20117;-76
2022/02/13 08:28:23;;;;;;;13.90;10.60;;;0.60;99.90;;;;;;4998695;28;20026;-76
2022/02/13 08:30:49;;;;;;;12.35;10.07;;;0.60;99.90;;;;;;4999483;28;20027;-75
2022/02/13 08:33:15;;;;;;;13.60;10.13;;;0.80;99.90;;;;;;5005294;28;20081;-75
2022/02/13 08:35:40;;;;;;;11.65;10.18;;;0.80;99.90;;;;;;5004522;28;20041;-75
2022/02/13 08:38:06;;;;;;;14.00;10.48;;;0.80;99.90;;;;;;4998736;28;20029;-76
2022/02/13 08:40:34;;;;;;;11.85;10.40;;;0.80;99.90;;;;;;4999364;28;20034;-76
2022/02/13 08:43:01;;;;;;;12.73;10.52;;;0.90;99.90;;;;;;5004144;28;20026;-76
2022/02/13 08:45:27;;;;;;;12.30;10.63;;;0.90;99.90;;;;;;5004845;28;20045;-76
2022/02/13 08:47:53;;;;;;;13.63;10.23;;;0.90;99.90;;;;;;4997322;28;20025;-75
2022/02/13 08:50:19;;;;;;;13.73;11.32;;;1.00;99.90;;;;;;4997698;28;20033;-75
2022/02/13 08:52:45;;;;;;;19.88;16.00;;;1.00;99.90;;;;;;5003087;28;20023;-75
2022/02/13 08:55:14;;;;;;;12.80;10.57;;;1.10;99.90;;;;;;4991369;28;20027;-75
2022/02/13 08:57:40;;;;;;;13.20;10.73;;;1.20;99.90;;;;;;5002713;28;20019;-75
2022/02/13 09:00:06;;;;;;;11.60;10.25;;;1.20;99.90;;;;;;5003601;28;20033;-75
2022/02/13 09:02:33;;;;;;;11.20;9.98;;;1.30;99.90;;;;;;4990202;28;20165;-76
2022/02/13 09:04:59;;;;;;;11.13;9.70;;;1.40;99.90;;;;;;5005967;28;20451;-76
2022/02/13 09:07:24;;;;;;;11.55;9.65;;;1.40;99.90;;;;;;5002662;28;20109;-76
2022/02/13 09:09:50;;;;;;;11.00;9.68;;;1.50;99.90;;;;;;4991692;28;20033;-75
2022/02/13 09:12:19;;;;;;;11.45;10.13;;;1.50;99.90;;;;;;4963472;28;1032987;-75
2022/02/13 09:14:48;;;;;;;11.05;9.85;;;1.60;99.90;;;;;;5014151;28;20045;-75
2022/02/13 09:17:13;;;;;;;10.90;9.48;;;1.60;99.90;;;;;;5004196;28;20034;-75
2022/02/13 09:19:39;;;;;;;10.32;9.35;;;1.70;99.90;;;;;;5000320;28;20030;-75
2022/02/13 09:22:05;;;;;;;14.52;10.07;;;2.00;99.90;;;;;;4996248;28;20026;-75
2022/02/13 09:24:30;;;;;;;11.73;9.90;;;1.80;99.90;;;;;;5012834;28;20030;-75
2022/02/13 09:26:56;;;;;;;12.52;10.65;;;1.80;99.90;;;;;;5000701;28;20026;-75
2022/02/13 09:29:22;;;;;;;11.52;9.88;;;2.00;99.90;;;;;;4993254;28;20373;-75
2022/02/13 09:31:47;;;;;;;10.48;9.30;;;2.00;99.90;;;;;;4995862;28;20026;-75
2022/02/13 09:34:15;;;;;;;13.65;9.10;;;2.20;99.90;;;;;;4999039;28;20022;-75
2022/02/13 09:36:40;;;;;;;11.07;9.50;;;2.30;99.90;;;;;;4997494;28;20018;-75
2022/02/13 09:39:06;;;;;;;11.60;9.73;;;2.40;99.90;;;;;;5001725;28;20034;-75
2022/02/13 09:41:32;;;;;;;11.15;9.50;;;2.50;99.90;;;;;;4997273;28;20108;-75
2022/02/13 09:43:57;;;;;;;12.23;9.32;;;2.50;99.90;;;;;;5000380;28;20030;-75
2022/02/13 09:46:24;;;;;;;13.38;10.13;;;2.60;99.90;;;;;;5014599;28;20105;-75
2022/02/13 09:48:52;;;;;;;16.55;11.57;;;2.70;99.90;;;;;;4995985;28;20026;-75
2022/02/13 09:51:17;;;;;;;15.43;12.00;;;2.80;99.90;;;;;;4988074;28;20444;-75
2022/02/13 09:53:43;;;;;;;11.32;10.10;;;2.80;99.90;;;;;;4995943;28;20062;-75
2022/02/13 09:56:09;;;;;;;13.95;10.07;;;2.70;99.90;;;;;;4994709;28;20203;-75
2022/02/13 09:58:35;;;;;;;12.77;10.45;;;2.90;99.90;;;;;;4996801;28;20030;-75
2022/02/13 10:01:02;;;;;;;14.32;10.48;;;3.00;99.90;;;;;;4997621;28;20022;-75
2022/02/13 10:03:29;;;;;;;14.50;11.02;;;3.20;99.90;;;;;;4989993;28;20032;-75
2022/02/13 10:06:16;;;;;;;12.43;9.45;;;3.10;99.90;;;;;;4995660;28;20030;-75
2022/02/13 10:08:45;;;;;;;;;;;3.10;99.90;;;;;;4997019;28;20125;-75
2022/02/13 10:11:24;;;;;;;16.25;11.05;;;3.20;99.90;;;;;;4995778;28;19909;-75
2022/02/13 10:14:06;;;;;;;14.68;9.48;;;3.30;99.90;;;;;;4997335;28;20080;-75
2022/02/13 10:16:34;;;;;;;10.88;8.70;;;3.30;99.90;;;;;;4999481;28;20483;-75
2022/02/13 10:19:08;;;;;;;10.30;8.77;;;3.40;99.90;;;;;;5004887;28;20026;-75
2022/02/13 10:21:45;;;;;;;10.98;8.80;;;3.40;99.90;;;;;;5001886;28;20384;-76
2022/02/13 10:24:32;;;;;;;11.15;9.10;;;3.60;99.90;;;;;;5002961;28;20018;-76
2022/02/13 10:27:05;;;;;;;10.75;8.88;;;3.60;99.90;;;;;;5004018;28;20049;-76
2022/02/13 10:29:37;;;;;;;11.82;8.55;;;3.60;99.90;;;;;;5000693;28;20030;-76
2022/02/13 10:32:21;;;;;;;12.05;9.23;;;3.80;99.90;;;;;;5002985;28;20081;-76
2022/02/13 10:35:12;;;;;;;11.95;8.90;;;3.90;99.90;;;;;;5008498;28;20023;-76
2022/02/13 10:37:41;;;;;;;13.73;9.18;;;4.00;99.90;;;;;;5008258;28;20054;-76
2022/02/13 10:40:13;;;;;;;11.98;9.05;;;4.10;99.90;;;;;;5005702;28;20028;-76
2022/02/13 10:42:39;;;;;;;12.10;9.50;;;4.10;99.90;;;;;;5002359;28;20056;-76
2022/02/13 10:45:25;;;;;;;11.63;8.98;;;4.10;99.90;;;;;;5003394;28;20019;-75
2022/02/13 10:47:59;;;;;;;10.23;9.13;;;4.20;99.90;;;;;;4982778;28;20026;-75
2022/02/13 10:50:27;;;;;;;11.65;8.70;;;4.40;99.90;;;;;;5008283;28;20026;-75
2022/02/13 10:52:55;;;;;;;12.60;8.90;;;4.30;99.90;;;;;;5003016;28;20022;-75
2022/02/13 10:55:21;;;;;;;15.27;9.15;;;4.60;99.90;;;;;;5012442;28;20026;-76
2022/02/13 10:57:47;;;;;;;10.32;9.32;;;4.70;99.90;;;;;;5003355;28;20480;-76
2022/02/13 11:00:15;;;;;;;13.05;8.93;;;4.70;99.90;;;;;;5001059;28;20030;-75
2022/02/13 11:02:45;;;;;;;11.95;9.20;;;4.50;99.90;;;;;;5005233;28;20037;-75
2022/02/13 11:05:10;;;;;;;13.32;9.38;;;4.90;99.90;;;;;;5007663;28;20027;-76
2022/02/13 11:07:47;;;;;;;11.55;8.82;;;5.10;99.90;;;;;;4994713;28;20041;-76
2022/02/13 11:10:19;;;;;;;12.85;9.02;;;5.10;99.90;;;;;;4998796;28;20061;-76
2022/02/13 11:12:45;;;;;;;14.80;8.40;;;5.00;99.90;;;;;;5013127;28;20033;-76
2022/02/13 11:15:17;;;;;;;11.23;8.38;;;5.00;99.90;;;;;;5001065;28;20040;-76
2022/02/13 11:17:45;;;;;;;16.95;8.90;;;5.00;99.90;;;;;;5000305;28;20053;-76
2022/02/13 11:20:15;;;;;;;11.27;7.97;;;5.10;99.90;;;;;;5013197;28;20036;-75
2022/02/13 11:22:41;;;;;;;13.40;8.20;;;5.50;99.90;;;;;;5012814;28;20033;-74
2022/02/13 11:25:10;;;;;;;11.90;7.85;;;5.50;99.90;;;;;;5002050;28;20045;-75
2022/02/13 11:28:02;;;;;;;13.70;7.93;;;5.60;99.90;;;;;;5012256;28;20026;-75
2022/02/13 11:30:42;;;;;;;11.25;7.85;;;6.00;99.90;;;;;;5002388;28;20036;-75
2022/02/13 11:33:23;;;;;;;10.65;7.95;;;6.10;99.90;;;;;;5012407;28;20038;-75
2022/02/13 11:35:58;;;;;;;9.70;7.75;;;6.00;99.90;;;;;;4998258;28;20031;-75
2022/02/13 11:38:48;;;;;;;12.52;9.63;;;5.90;99.90;;;;;;5002289;28;20033;-74
2022/02/13 11:41:41;;;;;;;17.70;8.95;;;6.00;99.90;;;;;;4994427;28;20089;-76
2022/02/13 11:44:08;;;;;;;13.18;8.88;;;6.00;99.90;;;;;;4995400;28;20029;-76
2022/02/13 11:46:35;;;;;;;12.00;9.02;;;6.00;99.90;;;;;;5002783;28;20027;-76
2022/02/13 11:49:03;;;;;;;14.30;9.13;;;6.00;99.90;;;;;;4992293;28;20412;-76
2022/02/13 11:51:47;;;;;;;12.25;8.05;;;6.00;99.90;;;;;;5003571;28;20041;-76
2022/02/13 11:54:47;;;;;;;11.40;7.68;;;6.10;99.90;;;;;;5012162;28;20052;-76
2022/02/13 11:57:16;;;;;;;11.13;7.53;;;6.40;99.90;;;;;;4997280;28;20129;-75
2022/02/13 11:59:51;;;;;;;13.07;7.30;;;6.30;99.90;;;;;;4993513;28;20065;-75
2022/02/13 12:02:30;;;;;;;9.35;7.43;;;6.50;99.90;;;;;;5004228;28;20031;-75
2022/02/13 12:05:09;;;;;;;12.85;8.25;;;6.60;99.90;;;;;;4997265;28;20029;-75
2022/02/13 12:07:37;;;;;;;14.77;8.00;;;6.60;99.90;;;;;;5002839;28;20477;-75
2022/02/13 12:10:11;;;;;;;14.38;8.60;;;7.10;99.90;;;;;;5007440;28;20041;-76
2022/02/13 12:12:38;;;;;;;11.00;7.40;;;7.80;99.90;;;;;;4993090;28;20554;-76
2022/02/13 12:15:04;;;;;;;9.27;6.88;;;8.00;99.90;;;;;;4998519;28;20088;-76
2022/02/13 12:17:30;;;;;;;13.80;7.57;;;7.70;99.90;;;;;;5001351;28;20034;-77
2022/02/13 12:20:04;;;;;;;14.70;7.82;;;7.50;99.90;;;;;;5006382;28;20065;-76
2022/02/13 12:22:30;;;;;;;11.57;8.05;;;7.70;99.90;;;;;;5004325;28;20029;-76
2022/02/13 12:24:58;;;;;;;13.90;8.07;;;7.60;99.90;;;;;;4996070;28;20022;-76
2022/02/13 12:27:25;;;;;;;12.40;8.57;;;7.50;99.90;;;;;;5011446;28;20026;-76
2022/02/13 12:29:55;;;;;;;12.90;8.45;;;7.60;99.90;;;;;;4999337;28;20484;-77
2022/02/13 12:32:30;;;;;;;12.63;8.45;;;7.40;99.90;;;;;;5012515;28;20042;-77
2022/02/13 12:34:58;;;;;;;13.32;8.40;;;7.40;99.90;;;;;;5010228;28;20022;-74